sensor_id;sensor_type;location;lat;lon;timestamp;pressure;altitude;pressure_sealevel;temperature;humidity
13732;BME280;6937;56.096;12.664;2023-02-19T00:01:12;100979.13;;;3.99;100.00
13732;BME280;6937;56.096;12.664;2023-02-19T00:03:38;100960.72;;;3.97;100.00
13732;BME280;6937;56.096;12.664;2023-02-19T00:06:05;100952.66;;;4.00;100.00
13732;BME280;6937;56.096;12.664;2023-02-19T00:08:31;100945.44;;;4.04;100.00
13732;BME280;6937;56.096;12.664;2023-02-19T00:11:04;100948.00;;;4.05;100.00
13732;BME280;6937;56.096;12.664;2023-02-19T00:13:30;100939.41;;;4.00;100.00
13732;BME280;6937;56.096;12.664;2023-02-19T00:15:56;100931.63;;;3.97;100.00
13732;BME280;6937;56.096;12.664;2023-02-19T00:18:22;100928.97;;;3.97;100.00
13732;BME280;6937;56.096;12.664;2023-02-19T00:20:48;100941.97;;;4.02;100.00
13732;BME280;6937;56.096;12.664;2023-02-19T00:23:13;100936.06;;;3.97;100.00
13732;BME280;6937;56.096;12.664;2023-02-19T00:25:39;100924.63;;;3.96;100.00
13732;BME280;6937;56.096;12.664;2023-02-19T00:28:04;100935.09;;;3.98;100.00
13732;BME280;6937;56.096;12.664;2023-02-19T00:30:29;100936.09;;;3.95;100.00
13732;BME280;6937;56.096;12.664;2023-02-19T00:32:55;100929.09;;;3.94;100.00
13732;BME280;6937;56.096;12.664;2023-02-19T00:35:20;100924.75;;;3.93;100.00
13732;BME280;6937;56.096;12.664;2023-02-19T00:37:46;100918.66;;;3.91;100.00
13732;BME280;6937;56.096;12.664;2023-02-19T00:40:11;100927.56;;;3.88;100.00
13732;BME280;6937;56.096;12.664;2023-02-19T00:42:36;100927.63;;;3.87;100.00
13732;BME280;6937;56.096;12.664;2023-02-19T00:45:02;100939.94;;;3.88;100.00
13732;BME280;6937;56.096;12.664;2023-02-19T00:47:27;100927.72;;;3.85;100.00
13732;BME280;6937;56.096;12.664;2023-02-19T00:49:53;100928.44;;;3.89;100.00
13732;BME280;6937;56.096;12.664;2023-02-19T00:52:18;100928.31;;;3.92;100.00
13732;BME280;6937;56.096;12.664;2023-02-19T00:54:43;100915.22;;;3.89;100.00
13732;BME280;6937;56.096;12.664;2023-02-19T00:57:09;100924.22;;;3.85;100.00
13732;BME280;6937;56.096;12.664;2023-02-19T00:59:34;100929.34;;;3.88;100.00
13732;BME280;6937;56.096;12.664;2023-02-19T01:02:01;100933.00;;;3.85;100.00
13732;BME280;6937;56.096;12.664;2023-02-19T01:04:26;100931.22;;;3.86;100.00
13732;BME280;6937;56.096;12.664;2023-02-19T01:06:52;100930.28;;;3.87;100.00
13732;BME280;6937;56.096;12.664;2023-02-19T01:09:19;100932.91;;;3.87;100.00
13732;BME280;6937;56.096;12.664;2023-02-19T01:11:44;100929.53;;;3.83;100.00
13732;BME280;6937;56.096;12.664;2023-02-19T01:14:09;100932.28;;;3.82;100.00
13732;BME280;6937;56.096;12.664;2023-02-19T01:16:35;100939.22;;;3.84;100.00
13732;BME280;6937;56.096;12.664;2023-02-19T01:19:01;100932.06;;;3.86;100.00
13732;BME280;6937;56.096;12.664;2023-02-19T01:21:28;100933.00;;;3.85;100.00
13732;BME280;6937;56.096;12.664;2023-02-19T01:23:54;100934.06;;;3.81;100.00
13732;BME280;6937;56.096;12.664;2023-02-19T01:26:23;100934.78;;;3.85;100.00
13732;BME280;6937;56.096;12.664;2023-02-19T01:28:50;100941.72;;;3.87;100.00
13732;BME280;6937;56.096;12.664;2023-02-19T01:31:18;100938.38;;;3.82;100.00
13732;BME280;6937;56.096;12.664;2023-02-19T01:33:51;100941.78;;;3.86;100.00
13732;BME280;6937;56.096;12.664;2023-02-19T01:36:18;100956.78;;;3.85;100.00
13732;BME280;6937;56.096;12.664;2023-02-19T01:38:44;100947.88;;;3.88;100.00
13732;BME280;6937;56.096;12.664;2023-02-19T01:41:12;100941.78;;;3.86;100.00
13732;BME280;6937;56.096;12.664;2023-02-19T01:44:04;100945.28;;;3.86;100.00
13732;BME280;6937;56.096;12.664;2023-02-19T01:46:36;100937.34;;;3.86;100.00
13732;BME280;6937;56.096;12.664;2023-02-19T01:49:07;100940.06;;;3.85;100.00
13732;BME280;6937;56.096;12.664;2023-02-19T01:51:36;100946.13;;;3.87;100.00
13732;BME280;6937;56.096;12.664;2023-02-19T01:54:04;100939.03;;;3.89;100.00
13732;BME280;6937;56.096;12.664;2023-02-19T01:56:31;100937.34;;;3.86;100.00
13732;BME280;6937;56.096;12.664;2023-02-19T01:58:59;100936.56;;;3.84;100.00
13732;BME280;6937;56.096;12.664;2023-02-19T02:01:25;100936.50;;;3.86;100.00
13732;BME280;6937;56.096;12.664;2023-02-19T02:03:50;100936.50;;;3.86;100.00
13732;BME280;6937;56.096;12.664;2023-02-19T02:06:23;100943.75;;;3.81;100.00
13732;BME280;6937;56.096;12.664;2023-02-19T02:08:54;100954.19;;;3.84;100.00
13732;BME280;6937;56.096;12.664;2023-02-19T02:11:42;100941.91;;;3.83;100.00
13732;BME280;6937;56.096;12.664;2023-02-19T02:14:09;100937.56;;;3.82;100.00
13732;BME280;6937;56.096;12.664;2023-02-19T02:19:31;100949.97;;;3.80;100.00
13732;BME280;6937;56.096;12.664;2023-02-19T02:22:17;100927.34;;;3.73;100.00
13732;BME280;6937;56.096;12.664;2023-02-19T02:32:59;100935.97;;;3.78;100.00
13732;BME280;6937;56.096;12.664;2023-02-19T02:35:31;100933.47;;;3.75;100.00
13732;BME280;6937;56.096;12.664;2023-02-19T02:38:01;100927.09;;;3.79;100.00
13732;BME280;6937;56.096;12.664;2023-02-19T02:40:29;100933.38;;;3.76;100.00
13732;BME280;6937;56.096;12.664;2023-02-19T02:42:59;100935.28;;;3.73;100.00
13732;BME280;6937;56.096;12.664;2023-02-19T02:45:31;100929.13;;;3.72;100.00
13732;BME280;6937;56.096;12.664;2023-02-19T02:48:04;100935.28;;;3.73;100.00
13732;BME280;6937;56.096;12.664;2023-02-19T02:50:40;100935.28;;;3.73;100.00
13732;BME280;6937;56.096;12.664;2023-02-19T02:53:17;100930.06;;;3.71;100.00
13732;BME280;6937;56.096;12.664;2023-02-19T02:56:03;100933.56;;;3.72;100.00
13732;BME280;6937;56.096;12.664;2023-02-19T02:58:30;100933.47;;;3.75;100.00
13732;BME280;6937;56.096;12.664;2023-02-19T03:01:04;100935.97;;;3.78;100.00
13732;BME280;6937;56.096;12.664;2023-02-19T03:03:55;100936.84;;;3.78;100.00
13732;BME280;6937;56.096;12.664;2023-02-19T03:06:23;100944.75;;;3.78;100.00
13732;BME280;6937;56.096;12.664;2023-02-19T03:08:53;100942.31;;;3.74;100.00
13732;BME280;6937;56.096;12.664;2023-02-19T03:11:20;100939.66;;;3.74;100.00
13732;BME280;6937;56.096;12.664;2023-02-19T03:14:20;100941.38;;;3.75;100.00
13732;BME280;6937;56.096;12.664;2023-02-19T03:17:12;100945.06;;;3.71;100.00
13732;BME280;6937;56.096;12.664;2023-02-19T03:20:00;100959.94;;;3.73;100.00
13732;BME280;6937;56.096;12.664;2023-02-19T03:22:32;100966.09;;;3.74;100.00
13732;BME280;6937;56.096;12.664;2023-02-19T03:25:21;100966.88;;;3.76;100.00
13732;BME280;6937;56.096;12.664;2023-02-19T03:28:08;100960.72;;;3.75;100.00
13732;BME280;6937;56.096;12.664;2023-02-19T03:30:39;100966.94;;;3.74;100.00
13732;BME280;6937;56.096;12.664;2023-02-19T03:33:12;100965.28;;;3.72;100.00
13732;BME280;6937;56.096;12.664;2023-02-19T03:35:59;100963.56;;;3.71;100.00
13732;BME280;6937;56.096;12.664;2023-02-19T03:38:36;100971.50;;;3.71;100.00
13732;BME280;6937;56.096;12.664;2023-02-19T03:41:16;100967.91;;;3.72;100.00
13732;BME280;6937;56.096;12.664;2023-02-19T03:44:11;100965.34;;;3.70;100.00
13732;BME280;6937;56.096;12.664;2023-02-19T03:46:43;100976.06;;;3.67;100.00
13732;BME280;6937;56.096;12.664;2023-02-19T03:49:31;100962.63;;;3.72;100.00
13732;BME280;6937;56.096;12.664;2023-02-19T03:52:18;100964.50;;;3.70;100.00
13732;BME280;6937;56.096;12.664;2023-02-19T03:55:05;100962.75;;;3.69;100.00
13732;BME280;6937;56.096;12.664;2023-02-19T04:00:18;100965.66;;;3.63;100.00
13732;BME280;6937;56.096;12.664;2023-02-19T04:02:52;100955.00;;;3.64;100.00
13732;BME280;6937;56.096;12.664;2023-02-19T04:05:21;100961.03;;;3.68;100.00
13732;BME280;6937;56.096;12.664;2023-02-19T04:07:52;100958.53;;;3.65;100.00
13732;BME280;6937;56.096;12.664;2023-02-19T04:10:19;100964.81;;;3.62;100.00
13732;BME280;6937;56.096;12.664;2023-02-19T04:12:53;100966.63;;;3.60;100.00
13732;BME280;6937;56.096;12.664;2023-02-19T04:15:25;100972.84;;;3.59;100.00
13732;BME280;6937;56.096;12.664;2023-02-19T04:17:58;100965.09;;;3.55;100.00
13732;BME280;6937;56.096;12.664;2023-02-19T04:20:26;100976.47;;;3.57;100.00
13732;BME280;6937;56.096;12.664;2023-02-19T04:22:54;100980.97;;;3.55;100.00
13732;BME280;6937;56.096;12.664;2023-02-19T04:25:21;100977.59;;;3.51;100.00
13732;BME280;6937;56.096;12.664;2023-02-19T04:27:47;100983.78;;;3.50;100.00
13732;BME280;6937;56.096;12.664;2023-02-19T04:30:14;100983.88;;;3.49;100.00
13732;BME280;6937;56.096;12.664;2023-02-19T04:32:39;100980.41;;;3.47;100.00
13732;BME280;6937;56.096;12.664;2023-02-19T04:35:05;100981.28;;;3.47;100.00
13732;BME280;6937;56.096;12.664;2023-02-19T04:37:30;100982.00;;;3.51;100.00
13732;BME280;6937;56.096;12.664;2023-02-19T04:39:55;100976.78;;;3.49;100.00
13732;BME280;6937;56.096;12.664;2023-02-19T04:42:21;100986.50;;;3.49;100.00
13732;BME280;6937;56.096;12.664;2023-02-19T04:44:46;100987.28;;;3.51;100.00
13732;BME280;6937;56.096;12.664;2023-02-19T04:47:12;100984.69;;;3.49;100.00
13732;BME280;6937;56.096;12.664;2023-02-19T04:49:37;100990.63;;;3.56;100.00
13732;BME280;6937;56.096;12.664;2023-02-19T04:52:03;100994.31;;;3.52;100.00
13732;BME280;6937;56.096;12.664;2023-02-19T04:54:28;100999.72;;;3.49;100.00
13732;BME280;6937;56.096;12.664;2023-02-19T04:56:53;100999.81;;;3.46;100.00
13732;BME280;6937;56.096;12.664;2023-02-19T04:59:19;101010.47;;;3.44;100.00
13732;BME280;6937;56.096;12.664;2023-02-19T05:01:44;101021.94;;;3.43;100.00
13732;BME280;6937;56.096;12.664;2023-02-19T05:04:09;101018.56;;;3.39;100.00
13732;BME280;6937;56.096;12.664;2023-02-19T05:06:35;101023.72;;;3.42;100.00
13732;BME280;6937;56.096;12.664;2023-02-19T05:09:00;101029.00;;;3.42;100.00
13732;BME280;6937;56.096;12.664;2023-02-19T05:11:26;101022.84;;;3.42;100.00
13732;BME280;6937;56.096;12.664;2023-02-19T05:13:51;101017.75;;;3.37;100.00
13732;BME280;6937;56.096;12.664;2023-02-19T05:16:17;101020.47;;;3.36;100.00
13732;BME280;6937;56.096;12.664;2023-02-19T05:18:44;101028.31;;;3.37;100.00
13732;BME280;6937;56.096;12.664;2023-02-19T05:21:10;101026.44;;;3.41;100.00
13732;BME280;6937;56.096;12.664;2023-02-19T05:23:36;101033.50;;;3.40;100.00
13732;BME280;6937;56.096;12.664;2023-02-19T05:26:07;101030.84;;;3.40;100.00
13732;BME280;6937;56.096;12.664;2023-02-19T05:28:33;101031.75;;;3.39;100.00
13732;BME280;6937;56.096;12.664;2023-02-19T05:31:04;101024.75;;;3.38;100.00
13732;BME280;6937;56.096;12.664;2023-02-19T05:33:30;101016.09;;;3.35;100.00
13732;BME280;6937;56.096;12.664;2023-02-19T05:35:56;101010.94;;;3.32;100.00
13732;BME280;6937;56.096;12.664;2023-02-19T05:38:21;101015.16;;;3.36;100.00
13732;BME280;6937;56.096;12.664;2023-02-19T05:40:47;101007.25;;;3.36;100.00
13732;BME280;6937;56.096;12.664;2023-02-19T05:43:13;101002.75;;;3.38;100.00
13732;BME280;6937;56.096;12.664;2023-02-19T05:45:39;101014.06;;;3.41;100.00
13732;BME280;6937;56.096;12.664;2023-02-19T05:48:06;101021.16;;;3.41;100.00
13732;BME280;6937;56.096;12.664;2023-02-19T05:50:33;101021.16;;;3.41;100.00
13732;BME280;6937;56.096;12.664;2023-02-19T05:52:59;101031.59;;;3.44;100.00
13732;BME280;6937;56.096;12.664;2023-02-19T05:55:26;101036.72;;;3.49;100.00
13732;BME280;6937;56.096;12.664;2023-02-19T05:57:51;101048.75;;;3.56;100.00
13732;BME280;6937;56.096;12.664;2023-02-19T06:00:18;101049.59;;;3.56;100.00
13732;BME280;6937;56.096;12.664;2023-02-19T06:02:44;101053.78;;;3.62;100.00
13732;BME280;6937;56.096;12.664;2023-02-19T06:05:10;101059.13;;;3.60;100.00
13732;BME280;6937;56.096;12.664;2023-02-19T06:07:35;101067.19;;;3.57;100.00
13732;BME280;6937;56.096;12.664;2023-02-19T06:10:06;101073.44;;;3.55;100.00
13732;BME280;6937;56.096;12.664;2023-02-19T06:12:31;101063.97;;;3.49;100.00
13732;BME280;6937;56.096;12.664;2023-02-19T06:14:57;101028.78;;;3.49;100.00
13732;BME280;6937;56.096;12.664;2023-02-19T06:17:22;101022.72;;;3.45;100.00
13732;BME280;6937;56.096;12.664;2023-02-19T06:19:48;101012.28;;;3.42;100.00
13732;BME280;6937;56.096;12.664;2023-02-19T06:22:14;101012.41;;;3.39;100.00
13732;BME280;6937;56.096;12.664;2023-02-19T06:24:39;100996.69;;;3.36;100.00
13732;BME280;6937;56.096;12.664;2023-02-19T06:27:06;101006.38;;;3.35;100.00
13732;BME280;6937;56.096;12.664;2023-02-19T06:29:32;101017.94;;;3.33;100.00
13732;BME280;6937;56.096;12.664;2023-02-19T06:31:58;101027.69;;;3.31;100.00
13732;BME280;6937;56.096;12.664;2023-02-19T06:34:24;101047.94;;;3.30;100.00
13732;BME280;6937;56.096;12.664;2023-02-19T06:36:50;101060.38;;;3.28;100.00
13732;BME280;6937;56.096;12.664;2023-02-19T06:39:16;101074.56;;;3.26;100.00
13732;BME280;6937;56.096;12.664;2023-02-19T06:41:41;101092.22;;;3.24;100.00
13732;BME280;6937;56.096;12.664;2023-02-19T06:44:07;101094.00;;;3.23;100.00
13732;BME280;6937;56.096;12.664;2023-02-19T06:46:32;101097.38;;;3.27;100.00
13732;BME280;6937;56.096;12.664;2023-02-19T06:48:58;101095.91;;;3.20;100.00
13732;BME280;6937;56.096;12.664;2023-02-19T06:51:23;101115.50;;;3.14;100.00
13732;BME280;6937;56.096;12.664;2023-02-19T06:53:51;101133.22;;;3.11;100.00
13732;BME280;6937;56.096;12.664;2023-02-19T06:56:26;101139.41;;;3.10;100.00
13732;BME280;6937;56.096;12.664;2023-02-19T06:58:56;101144.72;;;3.08;100.00
13732;BME280;6937;56.096;12.664;2023-02-19T07:01:25;101159.66;;;3.09;100.00
13732;BME280;6937;56.096;12.664;2023-02-19T07:03:50;101168.50;;;3.08;100.00
13732;BME280;6937;56.096;12.664;2023-02-19T07:06:20;101175.47;;;3.11;100.00
13732;BME280;6937;56.096;12.664;2023-02-19T07:08:46;101177.13;;;3.13;100.00
13732;BME280;6937;56.096;12.664;2023-02-19T07:11:11;101177.13;;;3.13;100.00
13732;BME280;6937;56.096;12.664;2023-02-19T07:13:37;101175.34;;;3.14;100.00
13732;BME280;6937;56.096;12.664;2023-02-19T07:16:05;101173.47;;;3.17;100.00
13732;BME280;6937;56.096;12.664;2023-02-19T07:18:32;101170.00;;;3.15;100.00
13732;BME280;6937;56.096;12.664;2023-02-19T07:21:05;101177.78;;;3.20;100.00
13732;BME280;6937;56.096;12.664;2023-02-19T07:23:31;101190.03;;;3.22;100.00
13732;BME280;6937;56.096;12.664;2023-02-19T07:25:57;101193.47;;;3.24;100.00
13732;BME280;6937;56.096;12.664;2023-02-19T07:28:22;101196.06;;;3.26;100.00
13732;BME280;6937;56.096;12.664;2023-02-19T07:30:48;101200.41;;;3.27;100.00
13732;BME280;6937;56.096;12.664;2023-02-19T07:33:13;101202.94;;;3.30;100.00
13732;BME280;6937;56.096;12.664;2023-02-19T07:35:45;101194.81;;;3.36;100.00
13732;BME280;6937;56.096;12.664;2023-02-19T07:38:10;101214.91;;;3.40;100.00
13732;BME280;6937;56.096;12.664;2023-02-19T07:40:36;101219.06;;;3.47;100.00
13732;BME280;6937;56.096;12.664;2023-02-19T07:43:02;101218.78;;;3.55;100.00
13732;BME280;6937;56.096;12.664;2023-02-19T07:45:27;101216.78;;;3.61;100.00
13732;BME280;6937;56.096;12.664;2023-02-19T07:47:52;101219.25;;;3.66;100.00
13732;BME280;6937;56.096;12.664;2023-02-19T07:50:18;101224.41;;;3.69;100.00
13732;BME280;6937;56.096;12.664;2023-02-19T07:52:43;101223.41;;;3.73;100.00
13732;BME280;6937;56.096;12.664;2023-02-19T07:55:08;101232.91;;;3.78;100.00
13732;BME280;6937;56.096;12.664;2023-02-19T07:57:34;101243.19;;;3.86;100.00
13732;BME280;6937;56.096;12.664;2023-02-19T07:59:59;101240.34;;;3.90;100.00
13732;BME280;6937;56.096;12.664;2023-02-19T08:02:25;101230.31;;;4.00;100.00
13732;BME280;6937;56.096;12.664;2023-02-19T08:05:09;101212.38;;;4.08;100.00
13732;BME280;6937;56.096;12.664;2023-02-19T08:07:35;101220.09;;;4.13;100.00
13732;BME280;6937;56.096;12.664;2023-02-19T08:10:02;101227.88;;;4.17;100.00
13732;BME280;6937;56.096;12.664;2023-02-19T08:12:59;101221.84;;;4.14;100.00
13732;BME280;6937;56.096;12.664;2023-02-19T08:15:51;101228.97;;;4.12;100.00
13732;BME280;6937;56.096;12.664;2023-02-19T08:18:19;101235.88;;;4.16;100.00
13732;BME280;6937;56.096;12.664;2023-02-19T08:20:45;101232.94;;;4.23;100.00
13732;BME280;6937;56.096;12.664;2023-02-19T08:23:11;101249.44;;;4.30;100.00
13732;BME280;6937;56.096;12.664;2023-02-19T08:25:38;101231.53;;;4.36;100.00
13732;BME280;6937;56.096;12.664;2023-02-19T08:28:04;101216.47;;;4.38;100.00
13732;BME280;6937;56.096;12.664;2023-02-19T08:30:31;101197.69;;;4.45;100.00
13732;BME280;6937;56.096;12.664;2023-02-19T08:32:58;101198.28;;;4.51;100.00
13732;BME280;6937;56.096;12.664;2023-02-19T08:35:24;101202.59;;;4.54;100.00
13732;BME280;6937;56.096;12.664;2023-02-19T08:37:49;101186.66;;;4.55;100.00
13732;BME280;6937;56.096;12.664;2023-02-19T08:40:15;101188.22;;;4.61;100.00
13732;BME280;6937;56.096;12.664;2023-02-19T08:42:41;101197.66;;;4.66;100.00
13732;BME280;6937;56.096;12.664;2023-02-19T08:45:07;101187.94;;;4.67;100.00
13732;BME280;6937;56.096;12.664;2023-02-19T08:47:35;101209.25;;;4.64;100.00
13732;BME280;6937;56.096;12.664;2023-02-19T08:50:03;101207.22;;;4.70;100.00
13732;BME280;6937;56.096;12.664;2023-02-19T08:52:29;101227.03;;;4.82;100.00
13732;BME280;6937;56.096;12.664;2023-02-19T08:54:54;101228.81;;;4.81;100.00
13732;BME280;6937;56.096;12.664;2023-02-19T08:57:20;101222.78;;;4.78;100.00
13732;BME280;6937;56.096;12.664;2023-02-19T08:59:46;101215.09;;;4.72;100.00
13732;BME280;6937;56.096;12.664;2023-02-19T09:02:11;101218.94;;;4.65;100.00
13732;BME280;6937;56.096;12.664;2023-02-19T09:04:37;101236.38;;;4.69;100.00
13732;BME280;6937;56.096;12.664;2023-02-19T09:07:04;101230.34;;;4.65;100.00
13732;BME280;6937;56.096;12.664;2023-02-19T09:09:38;101236.50;;;4.66;100.00
13732;BME280;6937;56.096;12.664;2023-02-19T09:12:07;101228.25;;;4.73;100.00
13732;BME280;6937;56.096;12.664;2023-02-19T09:14:34;101237.66;;;4.80;100.00
13732;BME280;6937;56.096;12.664;2023-02-19T09:17:00;101239.22;;;4.86;100.00
13732;BME280;6937;56.096;12.664;2023-02-19T09:19:26;101237.63;;;4.82;100.00
13732;BME280;6937;56.096;12.664;2023-02-19T09:21:53;101230.13;;;4.71;100.00
13732;BME280;6937;56.096;12.664;2023-02-19T09:24:19;101256.03;;;4.63;100.00
13732;BME280;6937;56.096;12.664;2023-02-19T09:26:48;101252.88;;;4.54;100.00
13732;BME280;6937;56.096;12.664;2023-02-19T09:29:13;101272.41;;;4.51;100.00
13732;BME280;6937;56.096;12.664;2023-02-19T09:31:39;101293.41;;;4.56;100.00
13732;BME280;6937;56.096;12.664;2023-02-19T09:34:05;101308.72;;;4.69;100.00
13732;BME280;6937;56.096;12.664;2023-02-19T09:36:30;101315.16;;;4.85;100.00
13732;BME280;6937;56.096;12.664;2023-02-19T09:38:58;101306.78;;;4.96;100.00
13732;BME280;6937;56.096;12.664;2023-02-19T09:41:44;101294.94;;;5.05;100.00
13732;BME280;6937;56.096;12.664;2023-02-19T09:44:13;101271.47;;;4.96;100.00
13732;BME280;6937;56.096;12.664;2023-02-19T09:46:49;101259.41;;;4.88;100.00
13732;BME280;6937;56.096;12.664;2023-02-19T09:49:18;101265.69;;;4.86;100.00
13732;BME280;6937;56.096;12.664;2023-02-19T09:51:52;101279.00;;;4.84;100.00
13732;BME280;6937;56.096;12.664;2023-02-19T09:54:24;101284.94;;;4.91;100.00
13732;BME280;6937;56.096;12.664;2023-02-19T09:56:52;101284.53;;;5.00;100.00
13732;BME280;6937;56.096;12.664;2023-02-19T09:59:28;101277.88;;;5.12;100.00
13732;BME280;6937;56.096;12.664;2023-02-19T10:02:03;101275.22;;;5.12;100.00
13732;BME280;6937;56.096;12.664;2023-02-19T10:04:38;101275.94;;;5.15;100.00
13732;BME280;6937;56.096;12.664;2023-02-19T10:07:11;101264.34;;;5.18;100.00
13732;BME280;6937;56.096;12.664;2023-02-19T10:09:36;101266.22;;;5.16;100.00
13732;BME280;6937;56.096;12.664;2023-02-19T10:12:13;101254.75;;;5.15;100.00
13732;BME280;6937;56.096;12.664;2023-02-19T10:14:44;101280.94;;;5.23;100.00
13732;BME280;6937;56.096;12.664;2023-02-19T10:17:22;101276.75;;;5.17;100.00
13732;BME280;6937;56.096;12.664;2023-02-19T10:19:48;101287.78;;;5.28;100.00
13732;BME280;6937;56.096;12.664;2023-02-19T10:22:14;101283.13;;;5.33;100.00
13732;BME280;6937;56.096;12.664;2023-02-19T10:24:40;101261.78;;;5.36;100.00
13732;BME280;6937;56.096;12.664;2023-02-19T10:27:14;101264.91;;;5.26;100.00
13732;BME280;6937;56.096;12.664;2023-02-19T10:29:42;101258.09;;;5.20;100.00
13732;BME280;6937;56.096;12.664;2023-02-19T10:32:12;101262.19;;;5.27;100.00
13732;BME280;6937;56.096;12.664;2023-02-19T10:34:38;101289.34;;;5.32;100.00
13732;BME280;6937;56.096;12.664;2023-02-19T10:37:10;101299.88;;;5.34;100.00
13732;BME280;6937;56.096;12.664;2023-02-19T10:39:45;101298.16;;;5.33;100.00
13732;BME280;6937;56.096;12.664;2023-02-19T10:42:20;101321.09;;;5.34;100.00
13732;BME280;6937;56.096;12.664;2023-02-19T10:44:50;101328.19;;;5.33;100.00
13732;BME280;6937;56.096;12.664;2023-02-19T10:47:22;101334.38;;;5.32;100.00
13732;BME280;6937;56.096;12.664;2023-02-19T10:49:50;101358.78;;;5.41;100.00
13732;BME280;6937;56.096;12.664;2023-02-19T10:52:22;101349.97;;;5.40;100.00
13732;BME280;6937;56.096;12.664;2023-02-19T10:57:45;101387.63;;;5.48;100.00
13732;BME280;6937;56.096;12.664;2023-02-19T11:02:39;101448.38;;;5.54;100.00
13732;BME280;6937;56.096;12.664;2023-02-19T11:07:34;101472.47;;;5.48;100.00
13732;BME280;6937;56.096;12.664;2023-02-19T11:10:00;101473.16;;;5.53;100.00
13732;BME280;6937;56.096;12.664;2023-02-19T11:12:29;101462.59;;;5.52;100.00
13732;BME280;6937;56.096;12.664;2023-02-19T11:14:56;101479.16;;;5.58;100.00
13732;BME280;6937;56.096;12.664;2023-02-19T11:17:28;101486.34;;;5.76;100.00
13732;BME280;6937;56.096;12.664;2023-02-19T11:19:56;101486.19;;;5.81;100.00
13732;BME280;6937;56.096;12.664;2023-02-19T11:27:28;101489.28;;;5.92;100.00
13732;BME280;6937;56.096;12.664;2023-02-19T11:29:55;101493.03;;;5.87;100.00
13732;BME280;6937;56.096;12.664;2023-02-19T11:32:23;101493.19;;;5.82;100.00
13732;BME280;6937;56.096;12.664;2023-02-19T11:34:50;101500.22;;;5.83;100.00
13732;BME280;6937;56.096;12.664;2023-02-19T11:37:18;101501.00;;;5.87;100.00
13732;BME280;6937;56.096;12.664;2023-02-19T11:39:47;101518.09;;;5.78;100.00
13732;BME280;6937;56.096;12.664;2023-02-19T11:42:24;101526.88;;;5.80;100.00
13732;BME280;6937;56.096;12.664;2023-02-19T11:50:24;101538.91;;;5.89;100.00
13732;BME280;6937;56.096;12.664;2023-02-19T11:53:19;101550.00;;;6.00;100.00
13732;BME280;6937;56.096;12.664;2023-02-19T12:01:55;101517.47;;;5.95;100.00
13732;BME280;6937;56.096;12.664;2023-02-19T12:07:13;101523.78;;;5.69;100.00
13732;BME280;6937;56.096;12.664;2023-02-19T12:10:02;101515.03;;;5.67;100.00
13732;BME280;6937;56.096;12.664;2023-02-19T12:18:43;101496.41;;;5.68;100.00
13732;BME280;6937;56.096;12.664;2023-02-19T12:21:45;101491.09;;;5.68;100.00
13732;BME280;6937;56.096;12.664;2023-02-19T12:24:41;101508.66;;;5.71;100.00
13732;BME280;6937;56.096;12.664;2023-02-19T12:27:42;101505.06;;;5.73;100.00
13732;BME280;6937;56.096;12.664;2023-02-19T12:31:21;101518.75;;;5.84;100.00
13732;BME280;6937;56.096;12.664;2023-02-19T12:38:48;101500.59;;;6.17;100.00
13732;BME280;6937;56.096;12.664;2023-02-19T12:44:23;101467.06;;;6.15;100.00
13732;BME280;6937;56.096;12.664;2023-02-19T12:46:56;101468.41;;;6.25;100.00
13732;BME280;6937;56.096;12.664;2023-02-19T12:49:47;101473.63;;;6.26;100.00
13732;BME280;6937;56.096;12.664;2023-02-19T12:52:18;101457.19;;;6.18;100.00
13732;BME280;6937;56.096;12.664;2023-02-19T12:54:46;101477.81;;;6.32;100.00
13732;BME280;6937;56.096;12.664;2023-02-19T12:57:20;101465.72;;;6.45;100.00
13732;BME280;6937;56.096;12.664;2023-02-19T12:59:54;101458.09;;;6.58;100.00
13732;BME280;6937;56.096;12.664;2023-02-19T13:02:27;101464.19;;;6.60;100.00
13732;BME280;6937;56.096;12.664;2023-02-19T13:05:42;101461.94;;;6.51;100.00
13732;BME280;6937;56.096;12.664;2023-02-19T13:07:57;101484.63;;;6.58;100.00
13732;BME280;6937;56.096;12.664;2023-02-19T13:10:37;101487.81;;;6.66;100.00
13732;BME280;6937;56.096;12.664;2023-02-19T13:13:18;101480.63;;;6.68;100.00
13732;BME280;6937;56.096;12.664;2023-02-19T13:15:49;101468.75;;;6.56;100.00
13732;BME280;6937;56.096;12.664;2023-02-19T13:18:23;101462.03;;;6.68;100.00
13732;BME280;6937;56.096;12.664;2023-02-19T13:20:50;101443.03;;;6.77;100.00
13732;BME280;6937;56.096;12.664;2023-02-19T13:23:22;101425.66;;;6.70;100.00
13732;BME280;6937;56.096;12.664;2023-02-19T13:36:53;101451.94;;;6.17;100.00
13732;BME280;6937;56.096;12.664;2023-02-19T13:39:20;101474.28;;;6.11;100.00
13732;BME280;6937;56.096;12.664;2023-02-19T13:41:51;101463.63;;;6.13;100.00
13732;BME280;6937;56.096;12.664;2023-02-19T13:44:19;101453.53;;;6.21;100.00
13732;BME280;6937;56.096;12.664;2023-02-19T13:46:47;101452.78;;;6.58;100.00
13732;BME280;6937;56.096;12.664;2023-02-19T13:49:22;101426.41;;;8.00;100.00
13732;BME280;6937;56.096;12.664;2023-02-19T13:54:40;101244.81;;;10.06;100.00
13732;BME280;6937;56.096;12.664;2023-02-19T13:59:46;101161.75;;;10.79;100.00
13732;BME280;6937;56.096;12.664;2023-02-19T14:02:20;101171.72;;;10.89;100.00
13732;BME280;6937;56.096;12.664;2023-02-19T14:04:54;101193.66;;;10.94;100.00
13732;BME280;6937;56.096;12.664;2023-02-19T14:07:32;101227.28;;;10.98;100.00
13732;BME280;6937;56.096;12.664;2023-02-19T14:09:58;101213.06;;;11.10;100.00
13732;BME280;6937;56.096;12.664;2023-02-19T14:12:34;101233.22;;;11.29;100.00
13732;BME280;6937;56.096;12.664;2023-02-19T14:18:41;101245.97;;;11.38;100.00
13732;BME280;6937;56.096;12.664;2023-02-19T14:21:16;101252.94;;;11.40;100.00